Antares — DFJQ — position and weather

sailwx.info

Track history (hours):
 
Tides and Currents Weather Stations Pressure Air Temp Water Temp Dewpoint Dewpoint Depression Visibility Wind Speed Wind Dir Waves Ship Positions

Antares

Last reported at 2016-Feb-12 15:29 UTC. Time now 2016-Feb-12 16:10 UTC.
Position N 51°56' E 003°46'.

Length 79 m; draft 4.7 m.

Type: Ship. MMSI: 218777000.

Date/timePositionNaut miles runAvg speedWind from/ knotsBaromVisibWave heightAir tempDewpointWater temp
2016-Feb-12 15:29N 51°56' E 003°46'0 0.1
2016-Feb-12 14:26N 51°56' E 003°46'0 0.0
2016-Feb-12 13:32N 51°56' E 003°46'0 0.0
2016-Feb-12 12:29N 51°56' E 003°46'0 0.0
2016-Feb-12 11:32N 51°56' E 003°46'2 2.0
2016-Feb-12 10:33N 51°56' E 003°43'57 9.3
2016-Feb-12 04:22N 51°59' E 002°10'810.1
2016-Feb-12 03:33N 52°01' E 001°58'1110.7
2016-Feb-12 02:33N 52°02' E 001°40'10 9.5
2016-Feb-12 01:33N 51°56' E 001°28'7 6.7
2016-Feb-12 00:33N 51°57' E 001°17'2 1.8
2016-Feb-11 23:32N 51°57' E 001°14'0 0.0
2016-Feb-11 22:32N 51°57' E 001°14'0 0.0
2016-Feb-11 21:32N 51°57' E 001°14'0 0.0
2016-Feb-11 20:32N 51°57' E 001°14'0 0.0
2016-Feb-11 19:32N 51°57' E 001°14'0 0.0
2016-Feb-11 18:32N 51°57' E 001°14'0 0.0
2016-Feb-11 17:32N 51°57' E 001°14'0 0.0
2016-Feb-11 16:32N 51°57' E 001°14'0 0.0
2016-Feb-11 15:32N 51°57' E 001°14'0 0.0
2016-Feb-11 14:32N 51°57' E 001°14'0 0.0
2016-Feb-11 13:32N 51°57' E 001°14'0 0.0
2016-Feb-11 12:32N 51°57' E 001°14'0 0.0
2016-Feb-11 11:32N 51°57' E 001°14'3 3.5
2016-Feb-11 10:33N 51°56' E 001°19'8 7.6
2016-Feb-11 09:33N 51°57' E 001°32'1 0.9
2016-Feb-11 08:31N 51°58' E 001°32'0 0.1
2016-Feb-11 07:31N 51°58' E 001°32'0 0.0
2016-Feb-11 06:31N 51°58' E 001°32'0 0.0
2016-Feb-11 05:31N 51°58' E 001°32'0 0.0
2016-Feb-11 04:31N 51°58' E 001°32'0 0.0
2016-Feb-11 03:32N 51°58' E 001°32'0 0.0
2016-Feb-11 02:31N 51°58' E 001°32'0 0.1
2016-Feb-11 01:31N 51°58' E 001°32'0 0.1
2016-Feb-11 00:31N 51°58' E 001°32'0 0.1
2016-Feb-10 23:31N 51°58' E 001°32'0 0.0
2016-Feb-10 22:31N 51°58' E 001°32'0 0.0
2016-Feb-10 21:31N 51°58' E 001°32'0 0.0
2016-Feb-10 20:31N 51°58' E 001°32'0 0.1
2016-Feb-10 19:31N 51°58' E 001°32'0 0.1
2016-Feb-10 18:31N 51°58' E 001°32'0 0.0
2016-Feb-10 17:31N 51°58' E 001°32'0 0.0
2016-Feb-10 16:31N 51°58' E 001°32'0 0.0
2016-Feb-10 15:31N 51°58' E 001°32'0 0.0
2016-Feb-10 14:31N 51°58' E 001°32'0 0.1
2016-Feb-10 13:31N 51°58' E 001°32'0 0.1
2016-Feb-10 12:31N 51°58' E 001°32'0 0.1
2016-Feb-10 11:31N 51°58' E 001°32'0 0.0
2016-Feb-10 10:31N 51°58' E 001°32'0 0.0
2016-Feb-10 09:31N 51°58' E 001°32'0 0.0
2016-Feb-10 08:31N 51°58' E 001°32'0 0.2
2016-Feb-10 07:31N 51°58' E 001°32'0 0.1
2016-Feb-10 06:31N 51°58' E 001°32'0 0.0
2016-Feb-10 05:32N 51°58' E 001°32'0 0.0
2016-Feb-10 04:31N 51°58' E 001°32'0 0.0
2016-Feb-10 03:31N 51°58' E 001°32'0 0.0
2016-Feb-10 02:31N 51°58' E 001°32'0 0.0
2016-Feb-10 01:31N 51°58' E 001°32'0 0.0
2016-Feb-10 00:31N 51°58' E 001°32'0 0.0
2016-Feb-09 23:31N 51°58' E 001°32'2 2.4
2016-Feb-09 22:34N 51°59' E 001°35'8 8.1
2016-Feb-09 21:34N 52°01' E 001°48'9 8.8
2016-Feb-09 20:33N 52°01' E 002°02'19 9.2
2016-Feb-09 18:32N 51°59' E 002°32'9 9.1
2016-Feb-09 17:32N 51°56' E 002°46'11 4.6
2016-Feb-09 15:12N 51°46' E 002°40'912.6
2016-Feb-09 14:31N 51°40' E 002°30'1212.7
2016-Feb-09 13:33N 51°31' E 002°17'1212.0
2016-Feb-09 12:33N 51°24' E 002°01'1111.2
2016-Feb-09 11:34N 51°23' E 001°43'10 9.6
2016-Feb-09 10:33N 51°25' E 001°28'5 4.9
2016-Feb-09 09:33N 51°25' E 001°20'0 0.0
2016-Feb-09 08:33N 51°25' E 001°20'0 0.1
2016-Feb-09 07:33N 51°25' E 001°21'0 0.0
2016-Feb-09 06:30N 51°25' E 001°21'0 0.0
2016-Feb-09 05:33N 51°25' E 001°21'0 0.0
2016-Feb-09 04:33N 51°25' E 001°21'0 0.0
2016-Feb-09 03:33N 51°25' E 001°21'0 0.0
2016-Feb-09 02:33N 51°25' E 001°21'0 0.0
2016-Feb-09 01:33N 51°25' E 001°21'0 0.0
2016-Feb-09 00:33N 51°25' E 001°21'0 0.2
2016-Feb-08 23:33N 51°25' E 001°20'0 0.0
2016-Feb-08 22:33N 51°25' E 001°20'0 0.0
2016-Feb-08 21:33N 51°25' E 001°20'0 0.2
2016-Feb-08 20:33N 51°25' E 001°21'0 0.1
2016-Feb-08 19:34N 51°25' E 001°21'0 0.0
2016-Feb-08 18:33N 51°25' E 001°21'0 0.0
2016-Feb-08 17:33N 51°25' E 001°21'0 0.0
2016-Feb-08 16:33N 51°25' E 001°21'0 0.0
2016-Feb-08 15:30N 51°25' E 001°21'0 0.0
2016-Feb-08 14:34N 51°25' E 001°21'0 0.0
2016-Feb-08 13:33N 51°25' E 001°21'0 0.0
2016-Feb-08 12:33N 51°25' E 001°21'0 0.0
2016-Feb-08 11:33N 51°25' E 001°21'0 0.2
2016-Feb-08 10:33N 51°25' E 001°20'0 0.0
2016-Feb-08 09:33N 51°25' E 001°20'0 0.1
2016-Feb-08 08:33N 51°25' E 001°20'0 0.1
2016-Feb-08 07:34N 51°25' E 001°20'0 0.1
2016-Feb-08 06:30N 51°25' E 001°21'0 0.0
2016-Feb-08 05:33N 51°25' E 001°21'0 0.0
2016-Feb-08 04:33N 51°25' E 001°21'0 0.0
2016-Feb-08 03:33N 51°25' E 001°21'0 0.0
2016-Feb-08 02:34N 51°25' E 001°21'0 0.0
2016-Feb-08 01:33N 51°25' E 001°21'0 0.0
2016-Feb-08 00:33N 51°25' E 001°21'0 0.1
2016-Feb-07 23:33N 51°25' E 001°21'0 0.1
2016-Feb-07 22:33N 51°25' E 001°20'0 0.0
2016-Feb-07 21:33N 51°25' E 001°20'0 0.0
2016-Feb-07 20:33N 51°25' E 001°20'0 0.1
2016-Feb-07 19:33N 51°25' E 001°20'0 0.1
2016-Feb-07 18:33N 51°25' E 001°21'0 0.0
2016-Feb-07 17:33N 51°25' E 001°21'0 0.0
2016-Feb-07 16:33N 51°25' E 001°21'0 0.0
2016-Feb-07 15:33N 51°25' E 001°21'0 0.0
2016-Feb-07 14:33N 51°25' E 001°21'0 0.0
2016-Feb-07 13:33N 51°25' E 001°21'0 0.0
2016-Feb-07 12:33N 51°25' E 001°21'0 0.3
2016-Feb-07 11:34N 51°25' E 001°21'4 3.8
2016-Feb-07 10:34N 51°28' E 001°25'9 8.8
2016-Feb-07 09:33N 51°29' E 001°11'9 8.8
2016-Feb-07 08:34N 51°29' E 000°57'9 9.1
2016-Feb-07 07:34N 51°30' E 000°42'10 9.6
2016-Feb-07 06:33N 51°28' E 000°27'8 8.1
2016-Feb-07 05:34N 51°29' E 000°14'4 4.1
2016-Feb-07 04:32N 51°31' E 000°08'0 0.0
2016-Feb-07 03:32N 51°31' E 000°08'0 0.0
2016-Feb-07 02:32N 51°31' E 000°08'0 0.0
2016-Feb-07 01:32N 51°31' E 000°08'0 0.0
2016-Feb-07 00:32N 51°31' E 000°08'0 0.0
2016-Feb-06 23:32N 51°31' E 000°08'0 0.0
2016-Feb-06 22:32N 51°31' E 000°08'0 0.0
2016-Feb-06 21:32N 51°31' E 000°08'0 0.0
2016-Feb-06 20:32N 51°31' E 000°08'0 0.0
2016-Feb-06 19:32N 51°31' E 000°08'0 0.0
2016-Feb-06 18:32N 51°31' E 000°08'0 0.0
2016-Feb-06 17:32N 51°31' E 000°08'0 0.0
2016-Feb-06 16:32N 51°31' E 000°08'0 0.0
2016-Feb-06 15:29N 51°31' E 000°08'0 0.0
2016-Feb-06 14:32N 51°31' E 000°08'0 0.0
2016-Feb-06 13:32N 51°31' E 000°08'0 0.0
2016-Feb-06 12:32N 51°31' E 000°08'0 0.0
2016-Feb-06 11:29N 51°31' E 000°08'0 0.0
2016-Feb-06 10:29N 51°31' E 000°08'0 0.0
2016-Feb-06 09:32N 51°31' E 000°08'5 5.4
2016-Feb-06 08:34N 51°28' E 000°15'8 8.3
2016-Feb-06 07:34N 51°30' E 000°28'1211.5
2016-Feb-06 06:33N 51°30' E 000°47'1110.7
2016-Feb-06 05:33N 51°30' E 001°04'1010.2
2016-Feb-06 04:33N 51°29' E 001°21'4 4.4
2016-Feb-06 03:33N 51°25' E 001°25'2 1.9
2016-Feb-06 02:33N 51°25' E 001°22'0 0.0
2016-Feb-06 01:33N 51°25' E 001°22'0 0.0
2016-Feb-06 00:33N 51°25' E 001°22'0 0.0
2016-Feb-05 23:33N 51°25' E 001°22'0 0.0
2016-Feb-05 22:33N 51°25' E 001°22'0 0.1
2016-Feb-05 21:33N 51°25' E 001°22'0 0.1
2016-Feb-05 20:33N 51°25' E 001°22'0 0.0
2016-Feb-05 19:33N 51°25' E 001°22'0 0.0
2016-Feb-05 18:33N 51°25' E 001°22'0 0.0
2016-Feb-05 17:33N 51°25' E 001°22'0 0.0
2016-Feb-05 16:33N 51°25' E 001°22'0 0.0
2016-Feb-05 15:33N 51°25' E 001°22'0 0.0
2016-Feb-05 14:33N 51°25' E 001°22'0 0.0
2016-Feb-05 13:33N 51°25' E 001°22'0 0.0
2016-Feb-05 12:33N 51°25' E 001°22'0 0.0
2016-Feb-05 11:33N 51°25' E 001°22'0 0.0
2016-Feb-05 10:33N 51°25' E 001°22'0 0.1
2016-Feb-05 09:33N 51°25' E 001°22'0 0.0
2016-Feb-05 08:33N 51°25' E 001°22'0 0.1
2016-Feb-05 07:33N 51°25' E 001°22'0 0.0
2016-Feb-05 06:33N 51°25' E 001°22'0 0.1
2016-Feb-05 05:33N 51°25' E 001°22'0 0.0
2016-Feb-05 04:33N 51°25' E 001°22'0 0.0
2016-Feb-05 03:33N 51°25' E 001°22'0 0.0
2016-Feb-05 02:33N 51°25' E 001°22'0 0.0
2016-Feb-05 01:33N 51°25' E 001°22'0 0.0
2016-Feb-05 00:33N 51°25' E 001°22'0 0.0
2016-Feb-04 23:33N 51°25' E 001°22'0 0.0
2016-Feb-04 22:33N 51°25' E 001°22'0 0.0
2016-Feb-04 21:33N 51°25' E 001°22'0 0.1
2016-Feb-04 20:33N 51°25' E 001°22'0 0.0
2016-Feb-04 19:34N 51°25' E 001°22'0 0.0
2016-Feb-04 18:33N 51°25' E 001°22'0 0.0
2016-Feb-04 17:34N 51°25' E 001°22'0 0.0
2016-Feb-04 16:33N 51°25' E 001°22'0 0.0
2016-Feb-04 15:34N 51°25' E 001°22'0 0.1
2016-Feb-04 14:33N 51°25' E 001°22'0 0.0
2016-Feb-04 13:33N 51°25' E 001°22'0 0.0
2016-Feb-04 12:33N 51°25' E 001°22'0 0.0
2016-Feb-04 11:34N 51°25' E 001°22'0 0.0
2016-Feb-04 10:33N 51°25' E 001°22'0 0.0
2016-Feb-04 09:33N 51°25' E 001°22'0 0.0
2016-Feb-04 08:34N 51°25' E 001°22'0 0.0
2016-Feb-04 07:34N 51°25' E 001°22'0 0.1
2016-Feb-04 06:34N 51°25' E 001°22'0 0.1
2016-Feb-04 05:33N 51°25' E 001°22'0 0.1
2016-Feb-04 04:33N 51°25' E 001°22'0 0.0
2016-Feb-04 03:33N 51°25' E 001°22'0 0.0
2016-Feb-04 02:33N 51°25' E 001°22'0 0.0
2016-Feb-04 01:34N 51°25' E 001°22'0 0.0
2016-Feb-04 00:34N 51°25' E 001°22'0 0.0
2016-Feb-03 23:33N 51°25' E 001°22'0 0.0
2016-Feb-03 22:33N 51°25' E 001°22'0 0.0
2016-Feb-03 21:33N 51°25' E 001°22'0 0.0
2016-Feb-03 20:34N 51°25' E 001°22'0 0.0
2016-Feb-03 19:34N 51°25' E 001°22'0 0.1
2016-Feb-03 18:33N 51°25' E 001°22'0 0.0
2016-Feb-03 17:34N 51°25' E 001°22'0 0.0
2016-Feb-03 16:34N 51°25' E 001°22'0 0.0
2016-Feb-03 15:33N 51°25' E 001°22'0 0.0
2016-Feb-03 14:34N 51°25' E 001°22'0 0.0
2016-Feb-03 13:34N 51°25' E 001°22'0 0.0
2016-Feb-03 12:34N 51°25' E 001°22'0 0.0
2016-Feb-03 11:33N 51°25' E 001°22'0 0.0
2016-Feb-03 10:34N 51°25' E 001°22'0 0.0
2016-Feb-03 09:34N 51°25' E 001°22'0 0.0
2016-Feb-03 08:33N 51°25' E 001°22'0 0.0
2016-Feb-03 07:34N 51°25' E 001°22'0 0.0
2016-Feb-03 06:34N 51°25' E 001°22'0 0.0
2016-Feb-03 05:34N 51°25' E 001°22'0 0.0
2016-Feb-03 04:34N 51°25' E 001°22'0 0.0
2016-Feb-03 03:32N 51°25' E 001°22'0 0.0
2016-Feb-03 02:34N 51°25' E 001°22'0 0.0
2016-Feb-03 01:34N 51°25' E 001°22'8 8.1
2016-Feb-03 00:34N 51°24' E 001°35'8 8.5
2016-Feb-02 23:33N 51°25' E 001°48'9 8.7
2016-Feb-02 22:33N 51°31' E 001°59'7 7.3
2016-Feb-02 21:32N 51°36' E 002°08'6 6.3
2016-Feb-02 20:33N 51°40' E 002°15'6 5.7
2016-Feb-02 19:27N 51°45' E 002°22'  
Track history (hours):
 
Tides and Currents Weather Stations Pressure Air Temp Water Temp Dewpoint Dewpoint Depression Visibility Wind Speed Wind Dir Waves Ship Positions

Antares

Last reported at 2016-Feb-12 15:29 UTC. Time now 2016-Feb-12 16:10 UTC.
Position N 51°56' E 003°46'.

Length 79 m; draft 4.7 m.

Type: Ship. MMSI: 218777000.

Date/timePositionNaut miles runAvg speedWind from/ knotsBaromVisibWave heightAir tempDewpointWater temp
2016-Feb-12 15:29N 51°56' E 003°46'0 0.1
2016-Feb-12 14:26N 51°56' E 003°46'0 0.0
2016-Feb-12 13:32N 51°56' E 003°46'0 0.0
2016-Feb-12 12:29N 51°56' E 003°46'0 0.0
2016-Feb-12 11:32N 51°56' E 003°46'2 2.0
2016-Feb-12 10:33N 51°56' E 003°43'57 9.3
2016-Feb-12 04:22N 51°59' E 002°10'810.1
2016-Feb-12 03:33N 52°01' E 001°58'1110.7
2016-Feb-12 02:33N 52°02' E 001°40'10 9.5
2016-Feb-12 01:33N 51°56' E 001°28'7 6.7
2016-Feb-12 00:33N 51°57' E 001°17'2 1.8
2016-Feb-11 23:32N 51°57' E 001°14'0 0.0
2016-Feb-11 22:32N 51°57' E 001°14'0 0.0
2016-Feb-11 21:32N 51°57' E 001°14'0 0.0
2016-Feb-11 20:32N 51°57' E 001°14'0 0.0
2016-Feb-11 19:32N 51°57' E 001°14'0 0.0
2016-Feb-11 18:32N 51°57' E 001°14'0 0.0
2016-Feb-11 17:32N 51°57' E 001°14'0 0.0
2016-Feb-11 16:32N 51°57' E 001°14'0 0.0
2016-Feb-11 15:32N 51°57' E 001°14'0 0.0
2016-Feb-11 14:32N 51°57' E 001°14'0 0.0
2016-Feb-11 13:32N 51°57' E 001°14'0 0.0
2016-Feb-11 12:32N 51°57' E 001°14'0 0.0
2016-Feb-11 11:32N 51°57' E 001°14'3 3.5
2016-Feb-11 10:33N 51°56' E 001°19'8 7.6
2016-Feb-11 09:33N 51°57' E 001°32'1 0.9
2016-Feb-11 08:31N 51°58' E 001°32'0 0.1
2016-Feb-11 07:31N 51°58' E 001°32'0 0.0
2016-Feb-11 06:31N 51°58' E 001°32'0 0.0
2016-Feb-11 05:31N 51°58' E 001°32'0 0.0
2016-Feb-11 04:31N 51°58' E 001°32'0 0.0
2016-Feb-11 03:32N 51°58' E 001°32'0 0.0
2016-Feb-11 02:31N 51°58' E 001°32'0 0.1
2016-Feb-11 01:31N 51°58' E 001°32'0 0.1
2016-Feb-11 00:31N 51°58' E 001°32'0 0.1
2016-Feb-10 23:31N 51°58' E 001°32'0 0.0
2016-Feb-10 22:31N 51°58' E 001°32'0 0.0
2016-Feb-10 21:31N 51°58' E 001°32'0 0.0
2016-Feb-10 20:31N 51°58' E 001°32'0 0.1
2016-Feb-10 19:31N 51°58' E 001°32'0 0.1
2016-Feb-10 18:31N 51°58' E 001°32'0 0.0
2016-Feb-10 17:31N 51°58' E 001°32'0 0.0
2016-Feb-10 16:31N 51°58' E 001°32'0 0.0
2016-Feb-10 15:31N 51°58' E 001°32'0 0.0
2016-Feb-10 14:31N 51°58' E 001°32'0 0.1
2016-Feb-10 13:31N 51°58' E 001°32'0 0.1
2016-Feb-10 12:31N 51°58' E 001°32'0 0.1
2016-Feb-10 11:31N 51°58' E 001°32'0 0.0
2016-Feb-10 10:31N 51°58' E 001°32'0 0.0
2016-Feb-10 09:31N 51°58' E 001°32'0 0.0
2016-Feb-10 08:31N 51°58' E 001°32'0 0.2
2016-Feb-10 07:31N 51°58' E 001°32'0 0.1
2016-Feb-10 06:31N 51°58' E 001°32'0 0.0
2016-Feb-10 05:32N 51°58' E 001°32'0 0.0
2016-Feb-10 04:31N 51°58' E 001°32'0 0.0
2016-Feb-10 03:31N 51°58' E 001°32'0 0.0
2016-Feb-10 02:31N 51°58' E 001°32'0 0.0
2016-Feb-10 01:31N 51°58' E 001°32'0 0.0
2016-Feb-10 00:31N 51°58' E 001°32'0 0.0
2016-Feb-09 23:31N 51°58' E 001°32'2 2.4
2016-Feb-09 22:34N 51°59' E 001°35'8 8.1
2016-Feb-09 21:34N 52°01' E 001°48'9 8.8
2016-Feb-09 20:33N 52°01' E 002°02'19 9.2
2016-Feb-09 18:32N 51°59' E 002°32'9 9.1
2016-Feb-09 17:32N 51°56' E 002°46'11 4.6
2016-Feb-09 15:12N 51°46' E 002°40'912.6
2016-Feb-09 14:31N 51°40' E 002°30'1212.7
2016-Feb-09 13:33N 51°31' E 002°17'1212.0
2016-Feb-09 12:33N 51°24' E 002°01'1111.2
2016-Feb-09 11:34N 51°23' E 001°43'10 9.6
2016-Feb-09 10:33N 51°25' E 001°28'5 4.9
2016-Feb-09 09:33N 51°25' E 001°20'0 0.0
2016-Feb-09 08:33N 51°25' E 001°20'0 0.1
2016-Feb-09 07:33N 51°25' E 001°21'0 0.0
2016-Feb-09 06:30N 51°25' E 001°21'0 0.0
2016-Feb-09 05:33N 51°25' E 001°21'0 0.0
2016-Feb-09 04:33N 51°25' E 001°21'0 0.0
2016-Feb-09 03:33N 51°25' E 001°21'0 0.0
2016-Feb-09 02:33N 51°25' E 001°21'0 0.0
2016-Feb-09 01:33N 51°25' E 001°21'0 0.0
2016-Feb-09 00:33N 51°25' E 001°21'0 0.2
2016-Feb-08 23:33N 51°25' E 001°20'0 0.0
2016-Feb-08 22:33N 51°25' E 001°20'0 0.0
2016-Feb-08 21:33N 51°25' E 001°20'0 0.2
2016-Feb-08 20:33N 51°25' E 001°21'0 0.1
2016-Feb-08 19:34N 51°25' E 001°21'0 0.0
2016-Feb-08 18:33N 51°25' E 001°21'0 0.0
2016-Feb-08 17:33N 51°25' E 001°21'0 0.0
2016-Feb-08 16:33N 51°25' E 001°21'0 0.0
2016-Feb-08 15:30N 51°25' E 001°21'0 0.0
2016-Feb-08 14:34N 51°25' E 001°21'0 0.0
2016-Feb-08 13:33N 51°25' E 001°21'0 0.0
2016-Feb-08 12:33N 51°25' E 001°21'0 0.0
2016-Feb-08 11:33N 51°25' E 001°21'0 0.2
2016-Feb-08 10:33N 51°25' E 001°20'0 0.0
2016-Feb-08 09:33N 51°25' E 001°20'0 0.1
2016-Feb-08 08:33N 51°25' E 001°20'0 0.1
2016-Feb-08 07:34N 51°25' E 001°20'0 0.1
2016-Feb-08 06:30N 51°25' E 001°21'0 0.0
2016-Feb-08 05:33N 51°25' E 001°21'0 0.0
2016-Feb-08 04:33N 51°25' E 001°21'0 0.0
2016-Feb-08 03:33N 51°25' E 001°21'0 0.0
2016-Feb-08 02:34N 51°25' E 001°21'0 0.0
2016-Feb-08 01:33N 51°25' E 001°21'0 0.0
2016-Feb-08 00:33N 51°25' E 001°21'0 0.1
2016-Feb-07 23:33N 51°25' E 001°21'0 0.1
2016-Feb-07 22:33N 51°25' E 001°20'0 0.0
2016-Feb-07 21:33N 51°25' E 001°20'0 0.0
2016-Feb-07 20:33N 51°25' E 001°20'0 0.1
2016-Feb-07 19:33N 51°25' E 001°20'0 0.1
2016-Feb-07 18:33N 51°25' E 001°21'0 0.0
2016-Feb-07 17:33N 51°25' E 001°21'0 0.0
2016-Feb-07 16:33N 51°25' E 001°21'0 0.0
2016-Feb-07 15:33N 51°25' E 001°21'0 0.0
2016-Feb-07 14:33N 51°25' E 001°21'0 0.0
2016-Feb-07 13:33N 51°25' E 001°21'0 0.0
2016-Feb-07 12:33N 51°25' E 001°21'0 0.3
2016-Feb-07 11:34N 51°25' E 001°21'4 3.8
2016-Feb-07 10:34N 51°28' E 001°25'9 8.8
2016-Feb-07 09:33N 51°29' E 001°11'9 8.8
2016-Feb-07 08:34N 51°29' E 000°57'9 9.1
2016-Feb-07 07:34N 51°30' E 000°42'10 9.6
2016-Feb-07 06:33N 51°28' E 000°27'8 8.1
2016-Feb-07 05:34N 51°29' E 000°14'4 4.1
2016-Feb-07 04:32N 51°31' E 000°08'0 0.0
2016-Feb-07 03:32N 51°31' E 000°08'0 0.0
2016-Feb-07 02:32N 51°31' E 000°08'0 0.0
2016-Feb-07 01:32N 51°31' E 000°08'0 0.0
2016-Feb-07 00:32N 51°31' E 000°08'0 0.0
2016-Feb-06 23:32N 51°31' E 000°08'0 0.0
2016-Feb-06 22:32N 51°31' E 000°08'0 0.0
2016-Feb-06 21:32N 51°31' E 000°08'0 0.0
2016-Feb-06 20:32N 51°31' E 000°08'0 0.0
2016-Feb-06 19:32N 51°31' E 000°08'0 0.0
2016-Feb-06 18:32N 51°31' E 000°08'0 0.0
2016-Feb-06 17:32N 51°31' E 000°08'0 0.0
2016-Feb-06 16:32N 51°31' E 000°08'0 0.0
2016-Feb-06 15:29N 51°31' E 000°08'0 0.0
2016-Feb-06 14:32N 51°31' E 000°08'0 0.0
2016-Feb-06 13:32N 51°31' E 000°08'0 0.0
2016-Feb-06 12:32N 51°31' E 000°08'0 0.0
2016-Feb-06 11:29N 51°31' E 000°08'0 0.0
2016-Feb-06 10:29N 51°31' E 000°08'0 0.0
2016-Feb-06 09:32N 51°31' E 000°08'5 5.4
2016-Feb-06 08:34N 51°28' E 000°15'8 8.3
2016-Feb-06 07:34N 51°30' E 000°28'1211.5
2016-Feb-06 06:33N 51°30' E 000°47'1110.7
2016-Feb-06 05:33N 51°30' E 001°04'1010.2
2016-Feb-06 04:33N 51°29' E 001°21'4 4.4
2016-Feb-06 03:33N 51°25' E 001°25'2 1.9
2016-Feb-06 02:33N 51°25' E 001°22'0 0.0
2016-Feb-06 01:33N 51°25' E 001°22'0 0.0
2016-Feb-06 00:33N 51°25' E 001°22'0 0.0
2016-Feb-05 23:33N 51°25' E 001°22'0 0.0
2016-Feb-05 22:33N 51°25' E 001°22'0 0.1
2016-Feb-05 21:33N 51°25' E 001°22'0 0.1
2016-Feb-05 20:33N 51°25' E 001°22'0 0.0
2016-Feb-05 19:33N 51°25' E 001°22'0 0.0
2016-Feb-05 18:33N 51°25' E 001°22'0 0.0
2016-Feb-05 17:33N 51°25' E 001°22'0 0.0
2016-Feb-05 16:33N 51°25' E 001°22'0 0.0
2016-Feb-05 15:33N 51°25' E 001°22'0 0.0
2016-Feb-05 14:33N 51°25' E 001°22'0 0.0
2016-Feb-05 13:33N 51°25' E 001°22'0 0.0
2016-Feb-05 12:33N 51°25' E 001°22'0 0.0
2016-Feb-05 11:33N 51°25' E 001°22'0 0.0
2016-Feb-05 10:33N 51°25' E 001°22'0 0.1
2016-Feb-05 09:33N 51°25' E 001°22'0 0.0
2016-Feb-05 08:33N 51°25' E 001°22'0 0.1
2016-Feb-05 07:33N 51°25' E 001°22'0 0.0
2016-Feb-05 06:33N 51°25' E 001°22'0 0.1
2016-Feb-05 05:33N 51°25' E 001°22'0 0.0
2016-Feb-05 04:33N 51°25' E 001°22'0 0.0
2016-Feb-05 03:33N 51°25' E 001°22'0 0.0
2016-Feb-05 02:33N 51°25' E 001°22'0 0.0
2016-Feb-05 01:33N 51°25' E 001°22'0 0.0
2016-Feb-05 00:33N 51°25' E 001°22'0 0.0
2016-Feb-04 23:33N 51°25' E 001°22'0 0.0
2016-Feb-04 22:33N 51°25' E 001°22'0 0.0
2016-Feb-04 21:33N 51°25' E 001°22'0 0.1
2016-Feb-04 20:33N 51°25' E 001°22'0 0.0
2016-Feb-04 19:34N 51°25' E 001°22'0 0.0
2016-Feb-04 18:33N 51°25' E 001°22'0 0.0
2016-Feb-04 17:34N 51°25' E 001°22'0 0.0
2016-Feb-04 16:33N 51°25' E 001°22'0 0.0
2016-Feb-04 15:34N 51°25' E 001°22'0 0.1
2016-Feb-04 14:33N 51°25' E 001°22'0 0.0
2016-Feb-04 13:33N 51°25' E 001°22'0 0.0
2016-Feb-04 12:33N 51°25' E 001°22'0 0.0
2016-Feb-04 11:34N 51°25' E 001°22'0 0.0
2016-Feb-04 10:33N 51°25' E 001°22'0 0.0
2016-Feb-04 09:33N 51°25' E 001°22'0 0.0
2016-Feb-04 08:34N 51°25' E 001°22'0 0.0
2016-Feb-04 07:34N 51°25' E 001°22'0 0.1
2016-Feb-04 06:34N 51°25' E 001°22'0 0.1
2016-Feb-04 05:33N 51°25' E 001°22'0 0.1
2016-Feb-04 04:33N 51°25' E 001°22'0 0.0
2016-Feb-04 03:33N 51°25' E 001°22'0 0.0
2016-Feb-04 02:33N 51°25' E 001°22'0 0.0
2016-Feb-04 01:34N 51°25' E 001°22'0 0.0
2016-Feb-04 00:34N 51°25' E 001°22'0 0.0
2016-Feb-03 23:33N 51°25' E 001°22'0 0.0
2016-Feb-03 22:33N 51°25' E 001°22'0 0.0
2016-Feb-03 21:33N 51°25' E 001°22'0 0.0
2016-Feb-03 20:34N 51°25' E 001°22'0 0.0
2016-Feb-03 19:34N 51°25' E 001°22'0 0.1
2016-Feb-03 18:33N 51°25' E 001°22'0 0.0
2016-Feb-03 17:34N 51°25' E 001°22'0 0.0
2016-Feb-03 16:34N 51°25' E 001°22'0 0.0
2016-Feb-03 15:33N 51°25' E 001°22'0 0.0
2016-Feb-03 14:34N 51°25' E 001°22'0 0.0
2016-Feb-03 13:34N 51°25' E 001°22'0 0.0
2016-Feb-03 12:34N 51°25' E 001°22'0 0.0
2016-Feb-03 11:33N 51°25' E 001°22'0 0.0
2016-Feb-03 10:34N 51°25' E 001°22'0 0.0
2016-Feb-03 09:34N 51°25' E 001°22'0 0.0
2016-Feb-03 08:33N 51°25' E 001°22'0 0.0
2016-Feb-03 07:34N 51°25' E 001°22'0 0.0
2016-Feb-03 06:34N 51°25' E 001°22'0 0.0
2016-Feb-03 05:34N 51°25' E 001°22'0 0.0
2016-Feb-03 04:34N 51°25' E 001°22'0 0.0
2016-Feb-03 03:32N 51°25' E 001°22'0 0.0
2016-Feb-03 02:34N 51°25' E 001°22'0 0.0
2016-Feb-03 01:34N 51°25' E 001°22'8 8.1
2016-Feb-03 00:34N 51°24' E 001°35'8 8.5
2016-Feb-02 23:33N 51°25' E 001°48'9 8.7
2016-Feb-02 22:33N 51°31' E 001°59'7 7.3
2016-Feb-02 21:32N 51°36' E 002°08'6 6.3
2016-Feb-02 20:33N 51°40' E 002°15'6 5.7
2016-Feb-02 19:27N 51°45' E 002°22'  

Dump ship's entire track history